sensor_id;sensor_type;location;lat;lon;timestamp;temperature;humidity
68922;DHT22;55959;51.244;5.724;2023-06-24T00:00:09;23.80;59.10
68922;DHT22;55959;51.244;5.724;2023-06-24T00:02:37;23.80;59.00
68922;DHT22;55959;51.244;5.724;2023-06-24T00:05:04;23.80;59.00
68922;DHT22;55959;51.244;5.724;2023-06-24T00:07:32;23.80;59.20
68922;DHT22;55959;51.244;5.724;2023-06-24T00:09:57;23.70;59.30
68922;DHT22;55959;51.244;5.724;2023-06-24T00:12:23;23.70;59.30
68922;DHT22;55959;51.244;5.724;2023-06-24T00:14:50;23.70;60.00
68922;DHT22;55959;51.244;5.724;2023-06-24T00:17:16;23.70;59.40
68922;DHT22;55959;51.244;5.724;2023-06-24T00:19:44;23.60;59.40
68922;DHT22;55959;51.244;5.724;2023-06-24T00:22:10;23.60;59.50
68922;DHT22;55959;51.244;5.724;2023-06-24T00:24:35;23.60;59.50
68922;DHT22;55959;51.244;5.724;2023-06-24T00:27:02;23.60;59.60
68922;DHT22;55959;51.244;5.724;2023-06-24T00:29:28;23.50;59.60
68922;DHT22;55959;51.244;5.724;2023-06-24T00:31:54;23.50;59.70
68922;DHT22;55959;51.244;5.724;2023-06-24T00:34:20;23.50;59.70
68922;DHT22;55959;51.244;5.724;2023-06-24T00:36:46;23.50;59.80
68922;DHT22;55959;51.244;5.724;2023-06-24T00:39:12;23.40;59.80
68922;DHT22;55959;51.244;5.724;2023-06-24T00:41:38;23.40;59.70
68922;DHT22;55959;51.244;5.724;2023-06-24T00:44:04;23.30;59.80
68922;DHT22;55959;51.244;5.724;2023-06-24T00:46:29;23.30;59.90
68922;DHT22;55959;51.244;5.724;2023-06-24T00:48:58;23.30;59.80
68922;DHT22;55959;51.244;5.724;2023-06-24T00:51:24;23.30;59.80
68922;DHT22;55959;51.244;5.724;2023-06-24T00:53:52;23.30;59.90
68922;DHT22;55959;51.244;5.724;2023-06-24T00:56:21;23.30;60.00
68922;DHT22;55959;51.244;5.724;2023-06-24T00:58:47;23.20;60.00
68922;DHT22;55959;51.244;5.724;2023-06-24T01:01:14;23.10;59.90
68922;DHT22;55959;51.244;5.724;2023-06-24T01:03:41;23.20;60.00
68922;DHT22;55959;51.244;5.724;2023-06-24T01:06:08;23.10;60.00
68922;DHT22;55959;51.244;5.724;2023-06-24T01:08:35;23.10;60.10
68922;DHT22;55959;51.244;5.724;2023-06-24T01:11:01;23.10;60.20
68922;DHT22;55959;51.244;5.724;2023-06-24T01:13:27;23.00;60.10
68922;DHT22;55959;51.244;5.724;2023-06-24T01:15:53;23.00;60.10
68922;DHT22;55959;51.244;5.724;2023-06-24T01:18:56;23.00;60.10
68922;DHT22;55959;51.244;5.724;2023-06-24T01:21:21;23.00;60.20
68922;DHT22;55959;51.244;5.724;2023-06-24T01:24:23;22.90;60.30
68922;DHT22;55959;51.244;5.724;2023-06-24T01:33:02;22.80;60.90
68922;DHT22;55959;51.244;5.724;2023-06-24T01:35:33;22.70;60.90
68922;DHT22;55959;51.244;5.724;2023-06-24T01:38:03;22.60;61.10
68922;DHT22;55959;51.244;5.724;2023-06-24T01:40:43;22.60;61.10
68922;DHT22;55959;51.244;5.724;2023-06-24T01:43:12;22.60;61.30
68922;DHT22;55959;51.244;5.724;2023-06-24T01:45:45;22.60;61.30
68922;DHT22;55959;51.244;5.724;2023-06-24T01:48:41;22.50;61.30
68922;DHT22;55959;51.244;5.724;2023-06-24T01:51:11;22.50;61.40
68922;DHT22;55959;51.244;5.724;2023-06-24T01:53:42;22.50;61.50
68922;DHT22;55959;51.244;5.724;2023-06-24T01:56:13;22.50;62.50
68922;DHT22;55959;51.244;5.724;2023-06-24T01:58:42;22.50;61.90
68922;DHT22;55959;51.244;5.724;2023-06-24T02:01:09;22.50;62.10
68922;DHT22;55959;51.244;5.724;2023-06-24T02:03:35;22.40;61.90
68922;DHT22;55959;51.244;5.724;2023-06-24T02:06:02;22.40;62.00
68922;DHT22;55959;51.244;5.724;2023-06-24T02:08:33;22.40;62.00
68922;DHT22;55959;51.244;5.724;2023-06-24T02:11:01;22.40;62.20
68922;DHT22;55959;51.244;5.724;2023-06-24T02:13:29;22.40;62.50
68922;DHT22;55959;51.244;5.724;2023-06-24T02:15:59;22.30;62.50
68922;DHT22;55959;51.244;5.724;2023-06-24T02:18:27;22.30;62.40
68922;DHT22;55959;51.244;5.724;2023-06-24T02:20:54;22.30;62.40
68922;DHT22;55959;51.244;5.724;2023-06-24T02:23:21;22.30;62.30
68922;DHT22;55959;51.244;5.724;2023-06-24T02:25:48;22.30;62.30
68922;DHT22;55959;51.244;5.724;2023-06-24T02:28:15;22.30;62.20
68922;DHT22;55959;51.244;5.724;2023-06-24T02:30:45;22.20;62.10
68922;DHT22;55959;51.244;5.724;2023-06-24T02:33:11;22.20;62.10
68922;DHT22;55959;51.244;5.724;2023-06-24T02:35:38;22.20;61.90
68922;DHT22;55959;51.244;5.724;2023-06-24T02:38:04;22.20;61.90
68922;DHT22;55959;51.244;5.724;2023-06-24T02:40:30;22.20;61.70
68922;DHT22;55959;51.244;5.724;2023-06-24T02:42:57;22.10;61.60
68922;DHT22;55959;51.244;5.724;2023-06-24T02:45:23;22.10;61.50
68922;DHT22;55959;51.244;5.724;2023-06-24T02:47:50;22.10;61.50
68922;DHT22;55959;51.244;5.724;2023-06-24T02:50:16;22.10;61.50
68922;DHT22;55959;51.244;5.724;2023-06-24T02:52:42;22.10;61.40
68922;DHT22;55959;51.244;5.724;2023-06-24T02:55:08;22.10;61.30
68922;DHT22;55959;51.244;5.724;2023-06-24T02:57:35;22.00;61.20
68922;DHT22;55959;51.244;5.724;2023-06-24T03:00:03;22.00;61.20
68922;DHT22;55959;51.244;5.724;2023-06-24T03:02:38;22.00;61.20
68922;DHT22;55959;51.244;5.724;2023-06-24T03:05:05;22.00;61.30
68922;DHT22;55959;51.244;5.724;2023-06-24T03:07:33;22.00;61.30
68922;DHT22;55959;51.244;5.724;2023-06-24T03:10:02;21.90;61.30
68922;DHT22;55959;51.244;5.724;2023-06-24T03:12:30;21.90;61.40
68922;DHT22;55959;51.244;5.724;2023-06-24T03:14:56;21.90;61.40
68922;DHT22;55959;51.244;5.724;2023-06-24T03:17:22;21.90;61.40
68922;DHT22;55959;51.244;5.724;2023-06-24T03:19:47;21.90;61.40
68922;DHT22;55959;51.244;5.724;2023-06-24T03:22:13;21.90;61.40
68922;DHT22;55959;51.244;5.724;2023-06-24T03:24:39;21.80;61.30
68922;DHT22;55959;51.244;5.724;2023-06-24T03:27:05;21.80;61.30
68922;DHT22;55959;51.244;5.724;2023-06-24T03:29:30;21.80;61.30
68922;DHT22;55959;51.244;5.724;2023-06-24T03:31:56;21.80;61.30
68922;DHT22;55959;51.244;5.724;2023-06-24T03:34:22;21.80;61.40
68922;DHT22;55959;51.244;5.724;2023-06-24T03:36:47;21.70;61.40
68922;DHT22;55959;51.244;5.724;2023-06-24T03:39:13;21.70;61.40
68922;DHT22;55959;51.244;5.724;2023-06-24T03:41:39;21.70;61.40
68922;DHT22;55959;51.244;5.724;2023-06-24T03:44:04;21.70;61.40
68922;DHT22;55959;51.244;5.724;2023-06-24T03:46:30;21.70;61.40
68922;DHT22;55959;51.244;5.724;2023-06-24T03:48:58;21.60;61.40
68922;DHT22;55959;51.244;5.724;2023-06-24T03:51:24;21.60;61.40
68922;DHT22;55959;51.244;5.724;2023-06-24T03:53:50;21.60;61.40
68922;DHT22;55959;51.244;5.724;2023-06-24T03:56:16;21.50;61.40
68922;DHT22;55959;51.244;5.724;2023-06-24T03:58:43;21.50;61.60
68922;DHT22;55959;51.244;5.724;2023-06-24T04:01:09;21.50;61.60
68922;DHT22;55959;51.244;5.724;2023-06-24T04:03:35;21.50;61.60
68922;DHT22;55959;51.244;5.724;2023-06-24T04:06:01;21.50;61.70
68922;DHT22;55959;51.244;5.724;2023-06-24T04:08:29;21.50;61.80
68922;DHT22;55959;51.244;5.724;2023-06-24T04:10:58;21.50;61.90
68922;DHT22;55959;51.244;5.724;2023-06-24T04:13:29;21.50;62.00
68922;DHT22;55959;51.244;5.724;2023-06-24T04:15:55;21.40;62.00
68922;DHT22;55959;51.244;5.724;2023-06-24T04:18:21;21.40;62.10
68922;DHT22;55959;51.244;5.724;2023-06-24T04:20:47;21.40;62.20
68922;DHT22;55959;51.244;5.724;2023-06-24T04:23:14;21.40;62.30
68922;DHT22;55959;51.244;5.724;2023-06-24T04:25:41;21.40;62.40
68922;DHT22;55959;51.244;5.724;2023-06-24T04:28:07;21.40;62.40
68922;DHT22;55959;51.244;5.724;2023-06-24T04:30:34;21.40;62.50
68922;DHT22;55959;51.244;5.724;2023-06-24T04:33:01;21.40;62.60
68922;DHT22;55959;51.244;5.724;2023-06-24T04:35:28;21.40;62.60
68922;DHT22;55959;51.244;5.724;2023-06-24T04:37:55;21.40;62.50
68922;DHT22;55959;51.244;5.724;2023-06-24T04:40:22;21.40;62.60
68922;DHT22;55959;51.244;5.724;2023-06-24T04:42:48;21.40;62.60
68922;DHT22;55959;51.244;5.724;2023-06-24T04:45:14;21.40;62.60
68922;DHT22;55959;51.244;5.724;2023-06-24T04:47:40;21.40;63.40
68922;DHT22;55959;51.244;5.724;2023-06-24T04:50:06;21.40;62.40
68922;DHT22;55959;51.244;5.724;2023-06-24T04:52:35;21.50;62.40
68922;DHT22;55959;51.244;5.724;2023-06-24T04:55:01;21.50;62.30
68922;DHT22;55959;51.244;5.724;2023-06-24T04:57:31;21.50;62.20
68922;DHT22;55959;51.244;5.724;2023-06-24T04:59:57;21.60;62.40
68922;DHT22;55959;51.244;5.724;2023-06-24T05:02:24;21.60;62.60
68922;DHT22;55959;51.244;5.724;2023-06-24T05:04:51;21.60;62.60
68922;DHT22;55959;51.244;5.724;2023-06-24T05:07:17;21.70;62.70
68922;DHT22;55959;51.244;5.724;2023-06-24T05:09:43;21.70;62.80
68922;DHT22;55959;51.244;5.724;2023-06-24T05:12:10;21.80;62.80
68922;DHT22;55959;51.244;5.724;2023-06-24T05:14:37;21.90;62.80
68922;DHT22;55959;51.244;5.724;2023-06-24T05:17:03;21.90;62.80
68922;DHT22;55959;51.244;5.724;2023-06-24T05:19:29;22.00;62.70
68922;DHT22;55959;51.244;5.724;2023-06-24T05:21:55;22.10;62.80
68922;DHT22;55959;51.244;5.724;2023-06-24T05:24:21;22.10;62.70
68922;DHT22;55959;51.244;5.724;2023-06-24T05:26:49;22.20;62.50
68922;DHT22;55959;51.244;5.724;2023-06-24T05:29:16;22.30;62.50
68922;DHT22;55959;51.244;5.724;2023-06-24T05:31:42;22.40;62.30
68922;DHT22;55959;51.244;5.724;2023-06-24T05:34:08;22.50;62.50
68922;DHT22;55959;51.244;5.724;2023-06-24T05:36:34;22.60;62.30
68922;DHT22;55959;51.244;5.724;2023-06-24T05:39:00;22.70;62.20
68922;DHT22;55959;51.244;5.724;2023-06-24T05:41:26;22.90;62.10
68922;DHT22;55959;51.244;5.724;2023-06-24T05:44:08;23.00;61.90
68922;DHT22;55959;51.244;5.724;2023-06-24T05:46:36;23.20;62.00
68922;DHT22;55959;51.244;5.724;2023-06-24T05:49:02;23.30;61.90
68922;DHT22;55959;51.244;5.724;2023-06-24T05:51:28;23.50;62.00
68922;DHT22;55959;51.244;5.724;2023-06-24T05:53:54;23.70;61.90
68922;DHT22;55959;51.244;5.724;2023-06-24T05:56:21;23.90;61.80
68922;DHT22;55959;51.244;5.724;2023-06-24T05:58:48;24.10;61.50
68922;DHT22;55959;51.244;5.724;2023-06-24T06:01:16;24.40;61.40
68922;DHT22;55959;51.244;5.724;2023-06-24T06:03:42;24.70;61.20
68922;DHT22;55959;51.244;5.724;2023-06-24T06:06:08;25.00;60.80
68922;DHT22;55959;51.244;5.724;2023-06-24T06:08:33;25.30;60.20
68922;DHT22;55959;51.244;5.724;2023-06-24T06:11:00;25.60;59.60
68922;DHT22;55959;51.244;5.724;2023-06-24T06:13:28;26.00;59.20
68922;DHT22;55959;51.244;5.724;2023-06-24T06:15:55;26.30;58.80
68922;DHT22;55959;51.244;5.724;2023-06-24T06:18:21;26.70;58.10
68922;DHT22;55959;51.244;5.724;2023-06-24T06:20:46;27.10;57.30
68922;DHT22;55959;51.244;5.724;2023-06-24T06:23:12;27.40;56.80
68922;DHT22;55959;51.244;5.724;2023-06-24T06:25:38;27.80;56.10
68922;DHT22;55959;51.244;5.724;2023-06-24T06:28:04;28.10;55.10
68922;DHT22;55959;51.244;5.724;2023-06-24T06:30:30;28.40;53.80
68922;DHT22;55959;51.244;5.724;2023-06-24T06:32:56;28.80;53.10
68922;DHT22;55959;51.244;5.724;2023-06-24T06:35:21;29.10;52.10
68922;DHT22;55959;51.244;5.724;2023-06-24T06:37:47;29.30;50.90
68922;DHT22;55959;51.244;5.724;2023-06-24T06:40:21;29.60;49.90
68922;DHT22;55959;51.244;5.724;2023-06-24T06:42:47;29.80;48.50
68922;DHT22;55959;51.244;5.724;2023-06-24T06:45:13;29.90;48.00
68922;DHT22;55959;51.244;5.724;2023-06-24T06:47:40;29.90;47.40
68922;DHT22;55959;51.244;5.724;2023-06-24T06:50:06;29.90;47.00
68922;DHT22;55959;51.244;5.724;2023-06-24T06:52:33;29.90;46.50
68922;DHT22;55959;51.244;5.724;2023-06-24T06:55:00;29.80;46.10
68922;DHT22;55959;51.244;5.724;2023-06-24T06:57:26;29.70;45.80
68922;DHT22;55959;51.244;5.724;2023-06-24T06:59:53;29.50;45.50
68922;DHT22;55959;51.244;5.724;2023-06-24T07:02:19;29.30;45.00
68922;DHT22;55959;51.244;5.724;2023-06-24T07:04:44;29.20;44.60
68922;DHT22;55959;51.244;5.724;2023-06-24T07:07:10;28.90;44.60
68922;DHT22;55959;51.244;5.724;2023-06-24T07:09:37;28.70;44.60
68922;DHT22;55959;51.244;5.724;2023-06-24T07:12:03;28.50;45.20
68922;DHT22;55959;51.244;5.724;2023-06-24T07:14:29;28.30;45.50
68922;DHT22;55959;51.244;5.724;2023-06-24T07:16:55;28.20;45.60
68922;DHT22;55959;51.244;5.724;2023-06-24T07:19:20;28.00;46.10
68922;DHT22;55959;51.244;5.724;2023-06-24T07:21:46;27.90;46.40
68922;DHT22;55959;51.244;5.724;2023-06-24T07:24:12;27.70;46.60
68922;DHT22;55959;51.244;5.724;2023-06-24T07:26:38;27.60;46.70
68922;DHT22;55959;51.244;5.724;2023-06-24T07:29:07;27.50;46.80
68922;DHT22;55959;51.244;5.724;2023-06-24T07:31:34;27.50;47.00
68922;DHT22;55959;51.244;5.724;2023-06-24T07:34:00;27.30;47.10
68922;DHT22;55959;51.244;5.724;2023-06-24T07:36:26;27.20;47.00
68922;DHT22;55959;51.244;5.724;2023-06-24T07:38:52;27.20;47.20
68922;DHT22;55959;51.244;5.724;2023-06-24T07:41:18;27.10;47.40
68922;DHT22;55959;51.244;5.724;2023-06-24T07:43:43;27.00;47.40
68922;DHT22;55959;51.244;5.724;2023-06-24T07:46:09;26.90;47.60
68922;DHT22;55959;51.244;5.724;2023-06-24T07:48:35;26.80;47.30
68922;DHT22;55959;51.244;5.724;2023-06-24T07:51:01;26.80;47.70
68922;DHT22;55959;51.244;5.724;2023-06-24T07:53:26;26.70;47.60
68922;DHT22;55959;51.244;5.724;2023-06-24T07:55:52;26.70;47.60
68922;DHT22;55959;51.244;5.724;2023-06-24T07:58:18;26.60;47.10
68922;DHT22;55959;51.244;5.724;2023-06-24T08:00:45;26.60;46.90
68922;DHT22;55959;51.244;5.724;2023-06-24T08:03:12;26.60;46.80
68922;DHT22;55959;51.244;5.724;2023-06-24T08:05:38;26.50;46.80
68922;DHT22;55959;51.244;5.724;2023-06-24T08:08:05;26.50;46.50
68922;DHT22;55959;51.244;5.724;2023-06-24T08:10:31;26.50;46.60
68922;DHT22;55959;51.244;5.724;2023-06-24T08:12:57;26.50;46.60
68922;DHT22;55959;51.244;5.724;2023-06-24T08:15:23;26.50;46.50
68922;DHT22;55959;51.244;5.724;2023-06-24T08:17:53;26.50;46.60
68922;DHT22;55959;51.244;5.724;2023-06-24T08:20:23;26.50;46.50
68922;DHT22;55959;51.244;5.724;2023-06-24T08:22:50;26.40;46.20
68922;DHT22;55959;51.244;5.724;2023-06-24T08:25:16;26.50;46.10
68922;DHT22;55959;51.244;5.724;2023-06-24T08:27:42;26.50;46.00
68922;DHT22;55959;51.244;5.724;2023-06-24T08:30:12;26.40;45.80
68922;DHT22;55959;51.244;5.724;2023-06-24T08:32:40;26.40;45.20
68922;DHT22;55959;51.244;5.724;2023-06-24T08:35:07;26.50;45.40
68922;DHT22;55959;51.244;5.724;2023-06-24T08:37:39;26.50;45.30
68922;DHT22;55959;51.244;5.724;2023-06-24T08:40:05;26.50;45.10
68922;DHT22;55959;51.244;5.724;2023-06-24T08:42:31;26.40;44.80
68922;DHT22;55959;51.244;5.724;2023-06-24T08:44:57;26.50;44.70
68922;DHT22;55959;51.244;5.724;2023-06-24T08:47:27;26.50;44.70
68922;DHT22;55959;51.244;5.724;2023-06-24T08:50:03;26.50;45.10
68922;DHT22;55959;51.244;5.724;2023-06-24T08:52:32;26.50;44.30
68922;DHT22;55959;51.244;5.724;2023-06-24T08:55:01;26.60;44.10
68922;DHT22;55959;51.244;5.724;2023-06-24T08:57:27;26.60;43.90
68922;DHT22;55959;51.244;5.724;2023-06-24T08:59:53;26.60;43.30
68922;DHT22;55959;51.244;5.724;2023-06-24T09:02:20;26.60;42.70
68922;DHT22;55959;51.244;5.724;2023-06-24T09:04:45;26.60;42.60
68922;DHT22;55959;51.244;5.724;2023-06-24T09:07:11;26.70;42.80
68922;DHT22;55959;51.244;5.724;2023-06-24T09:09:42;26.70;42.40
68922;DHT22;55959;51.244;5.724;2023-06-24T09:12:11;26.70;42.20
68922;DHT22;55959;51.244;5.724;2023-06-24T09:14:38;26.70;42.00
68922;DHT22;55959;51.244;5.724;2023-06-24T09:17:04;26.70;41.70
68922;DHT22;55959;51.244;5.724;2023-06-24T09:19:30;26.70;41.60
68922;DHT22;55959;51.244;5.724;2023-06-24T09:22:02;26.80;41.70
68922;DHT22;55959;51.244;5.724;2023-06-24T09:24:33;26.80;41.50
68922;DHT22;55959;51.244;5.724;2023-06-24T09:27:01;26.80;40.90
68922;DHT22;55959;51.244;5.724;2023-06-24T09:29:29;26.80;40.60
68922;DHT22;55959;51.244;5.724;2023-06-24T09:31:57;26.90;40.00
68922;DHT22;55959;51.244;5.724;2023-06-24T09:34:28;26.90;40.00
68922;DHT22;55959;51.244;5.724;2023-06-24T09:36:55;26.90;40.10
68922;DHT22;55959;51.244;5.724;2023-06-24T09:39:22;27.00;40.80
68922;DHT22;55959;51.244;5.724;2023-06-24T09:42:00;27.00;40.40
68922;DHT22;55959;51.244;5.724;2023-06-24T09:44:27;27.00;39.90
68922;DHT22;55959;51.244;5.724;2023-06-24T09:46:54;27.10;39.60
68922;DHT22;55959;51.244;5.724;2023-06-24T09:49:21;27.10;39.70
68922;DHT22;55959;51.244;5.724;2023-06-24T09:51:55;27.20;39.30
68922;DHT22;55959;51.244;5.724;2023-06-24T09:54:25;27.20;39.20
68922;DHT22;55959;51.244;5.724;2023-06-24T09:56:54;27.20;39.20
68922;DHT22;55959;51.244;5.724;2023-06-24T09:59:21;27.20;39.40
68922;DHT22;55959;51.244;5.724;2023-06-24T10:01:48;27.30;39.60
68922;DHT22;55959;51.244;5.724;2023-06-24T10:04:19;27.30;39.70
68922;DHT22;55959;51.244;5.724;2023-06-24T10:06:47;27.40;39.00
68922;DHT22;55959;51.244;5.724;2023-06-24T10:09:13;27.40;38.90
68922;DHT22;55959;51.244;5.724;2023-06-24T10:11:42;27.50;38.20
68922;DHT22;55959;51.244;5.724;2023-06-24T10:14:11;27.50;38.30
68922;DHT22;55959;51.244;5.724;2023-06-24T10:16:37;27.60;37.90
68922;DHT22;55959;51.244;5.724;2023-06-24T10:19:03;27.60;38.70
68922;DHT22;55959;51.244;5.724;2023-06-24T10:21:52;27.60;38.30
68922;DHT22;55959;51.244;5.724;2023-06-24T10:24:38;27.70;37.80
68922;DHT22;55959;51.244;5.724;2023-06-24T10:27:08;27.70;38.00
68922;DHT22;55959;51.244;5.724;2023-06-24T10:29:45;27.70;38.40
68922;DHT22;55959;51.244;5.724;2023-06-24T10:32:12;27.80;38.00
68922;DHT22;55959;51.244;5.724;2023-06-24T10:34:42;27.80;37.60
68922;DHT22;55959;51.244;5.724;2023-06-24T10:37:19;27.90;38.00
68922;DHT22;55959;51.244;5.724;2023-06-24T10:39:53;27.90;38.40
68922;DHT22;55959;51.244;5.724;2023-06-24T10:44:54;28.00;37.70
68922;DHT22;55959;51.244;5.724;2023-06-24T10:47:22;28.10;36.50
68922;DHT22;55959;51.244;5.724;2023-06-24T10:49:49;28.10;36.80
68922;DHT22;55959;51.244;5.724;2023-06-24T10:52:21;28.10;36.90
68922;DHT22;55959;51.244;5.724;2023-06-24T10:54:49;28.20;36.80
68922;DHT22;55959;51.244;5.724;2023-06-24T10:57:20;28.20;36.50
68922;DHT22;55959;51.244;5.724;2023-06-24T10:59:51;28.30;36.50
68922;DHT22;55959;51.244;5.724;2023-06-24T11:02:19;28.30;36.30
68922;DHT22;55959;51.244;5.724;2023-06-24T11:04:54;28.30;36.30
68922;DHT22;55959;51.244;5.724;2023-06-24T11:07:31;28.40;36.40
68922;DHT22;55959;51.244;5.724;2023-06-24T11:10:06;28.40;37.00
68922;DHT22;55959;51.244;5.724;2023-06-24T11:12:34;28.50;36.90
68922;DHT22;55959;51.244;5.724;2023-06-24T11:15:03;28.50;37.10
68922;DHT22;55959;51.244;5.724;2023-06-24T11:17:30;28.60;37.00
68922;DHT22;55959;51.244;5.724;2023-06-24T11:19:57;28.60;36.20
68922;DHT22;55959;51.244;5.724;2023-06-24T11:22:25;28.70;36.00
68922;DHT22;55959;51.244;5.724;2023-06-24T11:24:51;28.70;35.90
68922;DHT22;55959;51.244;5.724;2023-06-24T11:27:27;28.70;36.20
68922;DHT22;55959;51.244;5.724;2023-06-24T11:29:56;28.80;35.70
68922;DHT22;55959;51.244;5.724;2023-06-24T11:32:38;28.80;35.70
68922;DHT22;55959;51.244;5.724;2023-06-24T11:35:05;28.90;35.30
68922;DHT22;55959;51.244;5.724;2023-06-24T11:37:33;28.90;35.20
68922;DHT22;55959;51.244;5.724;2023-06-24T11:40:06;28.90;35.70
68922;DHT22;55959;51.244;5.724;2023-06-24T11:42:36;29.00;36.00
68922;DHT22;55959;51.244;5.724;2023-06-24T11:45:19;29.00;35.70
68922;DHT22;55959;51.244;5.724;2023-06-24T11:47:45;29.10;35.80
68922;DHT22;55959;51.244;5.724;2023-06-24T11:50:11;29.20;36.00
68922;DHT22;55959;51.244;5.724;2023-06-24T11:55:25;29.30;35.80
68922;DHT22;55959;51.244;5.724;2023-06-24T11:58:02;29.30;35.30
68922;DHT22;55959;51.244;5.724;2023-06-24T12:00:40;29.40;35.70
68922;DHT22;55959;51.244;5.724;2023-06-24T12:03:08;29.40;35.80
68922;DHT22;55959;51.244;5.724;2023-06-24T12:05:36;29.50;35.30
68922;DHT22;55959;51.244;5.724;2023-06-24T12:08:07;29.50;34.20
68922;DHT22;55959;51.244;5.724;2023-06-24T12:10:36;29.50;35.10
68922;DHT22;55959;51.244;5.724;2023-06-24T12:13:03;29.60;34.90
68922;DHT22;55959;51.244;5.724;2023-06-24T12:15:31;29.70;35.40
68922;DHT22;55959;51.244;5.724;2023-06-24T12:17:58;29.70;35.20
68922;DHT22;55959;51.244;5.724;2023-06-24T12:20:25;29.80;35.00
68922;DHT22;55959;51.244;5.724;2023-06-24T12:22:51;29.80;35.10
68922;DHT22;55959;51.244;5.724;2023-06-24T12:25:17;29.90;35.10
68922;DHT22;55959;51.244;5.724;2023-06-24T12:27:43;29.90;35.10
68922;DHT22;55959;51.244;5.724;2023-06-24T12:30:10;29.90;34.50
68922;DHT22;55959;51.244;5.724;2023-06-24T12:32:37;30.00;34.20
68922;DHT22;55959;51.244;5.724;2023-06-24T12:35:03;30.10;34.20
68922;DHT22;55959;51.244;5.724;2023-06-24T12:37:33;30.10;34.60
68922;DHT22;55959;51.244;5.724;2023-06-24T12:39:59;30.20;34.50
68922;DHT22;55959;51.244;5.724;2023-06-24T12:42:26;30.20;34.50
68922;DHT22;55959;51.244;5.724;2023-06-24T12:44:52;30.20;34.30
68922;DHT22;55959;51.244;5.724;2023-06-24T12:47:19;30.20;35.10
68922;DHT22;55959;51.244;5.724;2023-06-24T12:49:45;30.30;35.00
68922;DHT22;55959;51.244;5.724;2023-06-24T12:52:12;30.30;34.70
68922;DHT22;55959;51.244;5.724;2023-06-24T12:54:38;30.40;34.90
68922;DHT22;55959;51.244;5.724;2023-06-24T12:57:04;30.50;34.80
68922;DHT22;55959;51.244;5.724;2023-06-24T12:59:30;30.50;35.10
68922;DHT22;55959;51.244;5.724;2023-06-24T13:01:56;30.60;35.20
68922;DHT22;55959;51.244;5.724;2023-06-24T13:04:22;30.60;34.60
68922;DHT22;55959;51.244;5.724;2023-06-24T13:06:50;30.70;34.70
68922;DHT22;55959;51.244;5.724;2023-06-24T13:09:16;30.80;34.90
68922;DHT22;55959;51.244;5.724;2023-06-24T13:11:42;30.80;34.50
68922;DHT22;55959;51.244;5.724;2023-06-24T13:14:08;30.90;34.20
68922;DHT22;55959;51.244;5.724;2023-06-24T13:16:37;31.00;34.30
68922;DHT22;55959;51.244;5.724;2023-06-24T13:19:03;31.00;34.00
68922;DHT22;55959;51.244;5.724;2023-06-24T13:21:29;31.10;33.40
68922;DHT22;55959;51.244;5.724;2023-06-24T13:23:55;31.10;34.00
68922;DHT22;55959;51.244;5.724;2023-06-24T13:26:20;31.20;34.10
68922;DHT22;55959;51.244;5.724;2023-06-24T13:28:46;31.20;33.90
68922;DHT22;55959;51.244;5.724;2023-06-24T13:31:14;31.20;33.90
68922;DHT22;55959;51.244;5.724;2023-06-24T13:33:40;31.30;33.90
68922;DHT22;55959;51.244;5.724;2023-06-24T13:36:08;31.30;33.40
68922;DHT22;55959;51.244;5.724;2023-06-24T13:38:39;31.30;33.80
68922;DHT22;55959;51.244;5.724;2023-06-24T13:41:04;31.40;33.80
68922;DHT22;55959;51.244;5.724;2023-06-24T13:43:30;31.40;33.30
68922;DHT22;55959;51.244;5.724;2023-06-24T13:45:56;31.40;33.10
68922;DHT22;55959;51.244;5.724;2023-06-24T13:48:23;31.50;33.10
68922;DHT22;55959;51.244;5.724;2023-06-24T13:50:48;31.50;33.30
68922;DHT22;55959;51.244;5.724;2023-06-24T13:53:15;31.50;33.20
68922;DHT22;55959;51.244;5.724;2023-06-24T13:55:42;31.60;33.20
68922;DHT22;55959;51.244;5.724;2023-06-24T13:58:08;31.60;33.10
68922;DHT22;55959;51.244;5.724;2023-06-24T14:00:33;31.70;33.20
68922;DHT22;55959;51.244;5.724;2023-06-24T14:02:59;31.70;32.80
68922;DHT22;55959;51.244;5.724;2023-06-24T14:05:25;31.70;32.30
68922;DHT22;55959;51.244;5.724;2023-06-24T14:07:51;31.80;32.70
68922;DHT22;55959;51.244;5.724;2023-06-24T14:10:17;31.80;33.20
68922;DHT22;55959;51.244;5.724;2023-06-24T14:12:43;31.80;32.60
68922;DHT22;55959;51.244;5.724;2023-06-24T14:15:09;31.90;32.40
68922;DHT22;55959;51.244;5.724;2023-06-24T14:17:35;31.90;32.60
68922;DHT22;55959;51.244;5.724;2023-06-24T14:20:01;32.00;32.60
68922;DHT22;55959;51.244;5.724;2023-06-24T14:22:26;32.00;32.70
68922;DHT22;55959;51.244;5.724;2023-06-24T14:24:52;32.00;32.30
68922;DHT22;55959;51.244;5.724;2023-06-24T14:27:18;32.00;32.20
68922;DHT22;55959;51.244;5.724;2023-06-24T14:29:44;32.00;32.30
68922;DHT22;55959;51.244;5.724;2023-06-24T14:32:09;32.00;31.40
68922;DHT22;55959;51.244;5.724;2023-06-24T14:34:35;32.00;31.00
68922;DHT22;55959;51.244;5.724;2023-06-24T14:37:01;32.00;31.10
68922;DHT22;55959;51.244;5.724;2023-06-24T14:39:27;32.00;31.40
68922;DHT22;55959;51.244;5.724;2023-06-24T14:41:53;32.00;32.20
68922;DHT22;55959;51.244;5.724;2023-06-24T14:44:19;32.00;32.40
68922;DHT22;55959;51.244;5.724;2023-06-24T14:46:46;32.00;32.30
68922;DHT22;55959;51.244;5.724;2023-06-24T14:49:11;32.10;31.80
68922;DHT22;55959;51.244;5.724;2023-06-24T14:51:37;32.20;30.70
68922;DHT22;55959;51.244;5.724;2023-06-24T14:54:03;32.20;31.50
68922;DHT22;55959;51.244;5.724;2023-06-24T14:56:28;32.20;31.90
68922;DHT22;55959;51.244;5.724;2023-06-24T14:58:54;32.20;31.80
68922;DHT22;55959;51.244;5.724;2023-06-24T15:01:22;32.20;31.60
68922;DHT22;55959;51.244;5.724;2023-06-24T15:03:48;32.30;31.80
68922;DHT22;55959;51.244;5.724;2023-06-24T15:06:13;32.30;31.90
68922;DHT22;55959;51.244;5.724;2023-06-24T15:08:39;32.40;31.90
68922;DHT22;55959;51.244;5.724;2023-06-24T15:11:07;32.30;31.40
68922;DHT22;55959;51.244;5.724;2023-06-24T15:13:33;32.40;31.30
68922;DHT22;55959;51.244;5.724;2023-06-24T15:15:58;32.40;31.00
68922;DHT22;55959;51.244;5.724;2023-06-24T15:18:25;32.50;31.00
68922;DHT22;55959;51.244;5.724;2023-06-24T15:20:50;32.50;30.00
68922;DHT22;55959;51.244;5.724;2023-06-24T15:23:16;32.50;30.70
68922;DHT22;55959;51.244;5.724;2023-06-24T15:25:42;32.60;30.70
68922;DHT22;55959;51.244;5.724;2023-06-24T15:28:10;32.60;30.40
68922;DHT22;55959;51.244;5.724;2023-06-24T15:30:36;32.60;30.30
68922;DHT22;55959;51.244;5.724;2023-06-24T15:33:02;32.60;30.80
68922;DHT22;55959;51.244;5.724;2023-06-24T15:35:28;32.60;30.80
68922;DHT22;55959;51.244;5.724;2023-06-24T15:37:55;32.60;30.50
68922;DHT22;55959;51.244;5.724;2023-06-24T15:40:22;32.60;30.60
68922;DHT22;55959;51.244;5.724;2023-06-24T15:42:48;32.60;29.90